createdAt,value
2022-11-09T00:02:05.792Z,94608
2022-11-09T00:05:31.045Z,94610
2022-11-09T00:08:56.271Z,94607
2022-11-09T00:12:21.505Z,94611
2022-11-09T00:15:46.732Z,94608
2022-11-09T00:19:11.989Z,94607
2022-11-09T00:22:37.237Z,94596
2022-11-09T00:26:02.504Z,94585
2022-11-09T00:29:27.813Z,94580
2022-11-09T00:32:53.030Z,94587
2022-11-09T00:36:18.273Z,94594
2022-11-09T00:39:43.560Z,94591
2022-11-09T00:43:08.793Z,94598
2022-11-09T00:46:34.067Z,94595
2022-11-09T00:49:59.321Z,94591
2022-11-09T00:53:24.562Z,94595
2022-11-09T00:56:49.790Z,94591
2022-11-09T01:00:15.057Z,94599
2022-11-09T01:03:40.344Z,94599
2022-11-09T01:07:05.690Z,94590
2022-11-09T01:10:30.768Z,94599
2022-11-09T01:13:56.010Z,94595
2022-11-09T01:17:21.315Z,94596
2022-11-09T01:20:46.596Z,94596
2022-11-09T01:24:11.851Z,94594
2022-11-09T01:27:37.128Z,94576
2022-11-09T01:31:02.352Z,94573
2022-11-09T01:34:27.616Z,94575
2022-11-09T01:37:52.987Z,94571
2022-11-09T01:41:18.128Z,94571
2022-11-09T01:44:43.350Z,94573
2022-11-09T01:48:08.596Z,94560
2022-11-09T01:51:33.842Z,94557
2022-11-09T01:54:59.201Z,94551
2022-11-09T01:58:24.317Z,94557
2022-11-09T02:01:49.557Z,94546
2022-11-09T02:05:14.854Z,94537
2022-11-09T02:08:40.122Z,94541
2022-11-09T02:12:05.406Z,94542
2022-11-09T02:15:30.667Z,94540
2022-11-09T02:18:55.894Z,94541
2022-11-09T02:22:21.188Z,94538
2022-11-09T02:25:46.443Z,94539
2022-11-09T02:29:11.767Z,94552
2022-11-09T02:32:36.925Z,94553
2022-11-09T02:36:02.158Z,94558
2022-11-09T02:39:27.392Z,94561
2022-11-09T02:42:52.663Z,94550
2022-11-09T02:46:18.097Z,94560
2022-11-09T02:49:43.181Z,94556
2022-11-09T02:53:08.403Z,94550
2022-11-09T02:56:33.645Z,94549
2022-11-09T02:59:58.860Z,94554
2022-11-09T03:03:24.103Z,94555
2022-11-09T03:06:49.355Z,94555
2022-11-09T03:10:14.563Z,94559
2022-11-09T03:13:39.771Z,94559
2022-11-09T03:17:04.987Z,94564
2022-11-09T03:20:30.239Z,94573
2022-11-09T03:23:55.434Z,94588
2022-11-09T03:27:20.675Z,94593
2022-11-09T03:30:45.919Z,94593
2022-11-09T03:34:11.155Z,94601
2022-11-09T03:37:36.563Z,94603
2022-11-09T03:41:01.622Z,94611
2022-11-09T03:44:26.871Z,94606
2022-11-09T03:47:52.099Z,94600
2022-11-09T03:51:17.319Z,94596
2022-11-09T03:54:42.558Z,94595
2022-11-09T03:58:07.779Z,94595
2022-11-09T04:01:33.066Z,94596
2022-11-09T04:04:58.235Z,94598
2022-11-09T04:08:23.447Z,94605
2022-11-09T04:11:48.680Z,94600
2022-11-09T04:15:13.862Z,94601
2022-11-09T04:18:39.119Z,94599
2022-11-09T04:22:04.353Z,94603
2022-11-09T04:25:29.602Z,94600
2022-11-09T04:28:54.899Z,94598
2022-11-09T04:32:20.181Z,94598
2022-11-09T04:35:45.414Z,94600
2022-11-09T04:39:10.671Z,94587
2022-11-09T04:42:35.906Z,94587
2022-11-09T04:46:01.232Z,94594
2022-11-09T04:49:26.454Z,94605
2022-11-09T04:52:51.709Z,94602
2022-11-09T04:56:16.948Z,94601
2022-11-09T04:59:42.255Z,94607
2022-11-09T05:03:07.474Z,94600
2022-11-09T05:06:32.834Z,94594
2022-11-09T05:09:58.004Z,94593
2022-11-09T05:13:23.305Z,94587
2022-11-09T05:16:48.520Z,94590
2022-11-09T05:20:14.158Z,94593
2022-11-09T05:23:39.379Z,94596
2022-11-09T05:27:04.652Z,94603
2022-11-09T05:30:30.785Z,94605
2022-11-09T05:33:56.058Z,94610
2022-11-09T05:37:21.340Z,94605
2022-11-09T05:40:46.578Z,94613
2022-11-09T05:44:11.834Z,94604
2022-11-09T05:47:37.041Z,94600
2022-11-09T05:51:02.272Z,94597
2022-11-09T05:54:27.553Z,94598
2022-11-09T05:57:52.790Z,94595
2022-11-09T06:01:18.010Z,94608
2022-11-09T06:04:43.256Z,94610
2022-11-09T06:08:08.526Z,94615
2022-11-09T06:11:33.834Z,94618
2022-11-09T06:14:59.059Z,94624
2022-11-09T06:18:24.304Z,94629
2022-11-09T06:21:49.604Z,94618
2022-11-09T06:25:14.854Z,94621
2022-11-09T06:28:40.133Z,94618
2022-11-09T06:32:05.370Z,94629
2022-11-09T06:35:30.629Z,94639
2022-11-09T06:38:55.844Z,94633
2022-11-09T06:42:21.334Z,94644
2022-11-09T06:45:46.328Z,94645
2022-11-09T06:49:11.521Z,94635
2022-11-09T06:52:36.811Z,94639
2022-11-09T06:56:02.075Z,94638
2022-11-09T06:59:27.279Z,94633
2022-11-09T07:02:52.544Z,94632
2022-11-09T07:06:17.760Z,94635
2022-11-09T07:09:42.985Z,94631
2022-11-09T07:13:08.223Z,94635
2022-11-09T07:16:33.497Z,94629
2022-11-09T07:19:58.746Z,94646
2022-11-09T07:23:24.047Z,94632
2022-11-09T07:26:49.186Z,94642
2022-11-09T07:30:14.426Z,94642
2022-11-09T07:33:39.649Z,94634
2022-11-09T07:37:04.892Z,94635
2022-11-09T07:40:30.278Z,94638
2022-11-09T07:43:55.321Z,94635
2022-11-09T07:47:20.578Z,94628
2022-11-09T07:50:45.867Z,94632
2022-11-09T07:54:11.109Z,94628
2022-11-09T07:57:36.318Z,94632
2022-11-09T08:01:02.406Z,94626
2022-11-09T08:04:28.085Z,94628
2022-11-09T08:07:53.356Z,94625
2022-11-09T08:11:18.690Z,94630
2022-11-09T08:14:43.902Z,94661
2022-11-09T08:18:09.142Z,94679
2022-11-09T08:21:34.477Z,94667
2022-11-09T08:24:59.729Z,94667
2022-11-09T08:28:25.035Z,94658
2022-11-09T08:31:50.267Z,94653
2022-11-09T08:35:15.557Z,94649
2022-11-09T08:38:40.832Z,94655
2022-11-09T08:42:06.116Z,94651
2022-11-09T08:45:31.431Z,94660
2022-11-09T08:48:56.670Z,94668
2022-11-09T08:52:21.929Z,94668
2022-11-09T08:55:49.564Z,94661
2022-11-09T08:59:12.486Z,94676
2022-11-09T09:02:37.743Z,94662
2022-11-09T09:06:02.968Z,94651
2022-11-09T09:09:28.222Z,94650
2022-11-09T09:12:53.495Z,94655
2022-11-09T09:16:18.790Z,94650
2022-11-09T09:19:48.884Z,94645
2022-11-09T09:23:09.341Z,94646
2022-11-09T09:26:34.577Z,94651
2022-11-09T09:29:59.862Z,94659
2022-11-09T09:33:25.112Z,94661
2022-11-09T09:36:50.383Z,94655
2022-11-09T09:40:15.588Z,94661
2022-11-09T09:43:43.130Z,94653
2022-11-09T09:47:06.037Z,94644
2022-11-09T09:50:31.308Z,94657
2022-11-09T09:53:56.532Z,94650
2022-11-09T09:57:21.708Z,94655
2022-11-09T10:00:46.954Z,94653
2022-11-09T10:04:12.207Z,94653
2022-11-09T10:07:37.409Z,94648
2022-11-09T10:11:02.641Z,94633
2022-11-09T10:14:27.834Z,94636
2022-11-09T10:17:53.109Z,94648
2022-11-09T10:21:18.330Z,94641
2022-11-09T10:24:53.321Z,94648
2022-11-09T10:28:12.961Z,94637
2022-11-09T10:31:34.076Z,94624
2022-11-09T10:34:59.265Z,94626
2022-11-09T10:38:24.493Z,94620
2022-11-09T10:41:49.701Z,94616
2022-11-09T10:45:15.091Z,94611
2022-11-09T10:48:40.994Z,94615
2022-11-09T10:52:05.857Z,94627
2022-11-09T10:55:31.081Z,94628
2022-11-09T10:58:56.315Z,94619
2022-11-09T11:02:21.719Z,94616
2022-11-09T11:05:46.868Z,94611
2022-11-09T11:09:12.180Z,94614
2022-11-09T11:12:37.499Z,94610
2022-11-09T11:16:02.737Z,94616
2022-11-09T11:19:28.063Z,94624
2022-11-09T11:22:53.251Z,94625
2022-11-09T11:26:18.559Z,94621
2022-11-09T11:29:43.888Z,94616
2022-11-09T11:33:09.115Z,94620
2022-11-09T11:36:34.372Z,94616
2022-11-09T11:39:59.658Z,94624
2022-11-09T11:43:24.996Z,94620
2022-11-09T11:46:50.760Z,94620
2022-11-09T11:50:16.377Z,94627
2022-11-09T11:53:43.454Z,94630
2022-11-09T11:57:07.511Z,94634
2022-11-09T12:00:33.074Z,94624
2022-11-09T12:03:58.607Z,94617
2022-11-09T12:07:24.152Z,94622
2022-11-09T12:10:49.732Z,94612
2022-11-09T12:14:15.163Z,94609
2022-11-09T12:17:40.698Z,94600
2022-11-09T12:21:06.216Z,94593
2022-11-09T12:24:31.670Z,94588
2022-11-09T12:27:57.858Z,94584
2022-11-09T12:31:23.075Z,94582
2022-11-09T12:34:48.513Z,94577
2022-11-09T12:38:13.799Z,94568
2022-11-09T12:41:39.060Z,94573
2022-11-09T12:45:04.348Z,94577
2022-11-09T12:48:29.573Z,94581
2022-11-09T12:51:58.781Z,94583
2022-11-09T12:55:20.154Z,94587
2022-11-09T12:58:45.416Z,94582
2022-11-09T13:02:10.759Z,94580
2022-11-09T13:05:35.950Z,94585
2022-11-09T13:09:01.208Z,94584
2022-11-09T13:12:26.475Z,94586
2022-11-09T13:15:51.745Z,94582
2022-11-09T13:19:17.055Z,94585
2022-11-09T13:22:42.293Z,94599
2022-11-09T13:26:07.573Z,94600
2022-11-09T13:29:32.855Z,94603
2022-11-09T13:32:58.163Z,94607
2022-11-09T13:36:23.492Z,94608
2022-11-09T13:39:48.750Z,94613
2022-11-09T13:43:14.054Z,94621
2022-11-09T13:46:39.362Z,94623
2022-11-09T13:50:04.658Z,94634
2022-11-09T13:53:30.009Z,94635
2022-11-09T13:56:55.236Z,94637
2022-11-09T14:00:20.541Z,94642
2022-11-09T14:03:45.823Z,94650
2022-11-09T14:07:11.160Z,94652
2022-11-09T14:10:36.468Z,94654
2022-11-09T14:14:03.244Z,94655
2022-11-09T14:17:26.957Z,94656
2022-11-09T14:20:52.232Z,94653
2022-11-09T14:24:17.529Z,94652
2022-11-09T14:27:42.867Z,94653
2022-11-09T15:06:47.298Z,94673
2022-11-09T15:10:12.450Z,94673
2022-11-09T15:13:37.742Z,94669
2022-11-09T15:17:03.023Z,94668
2022-11-09T15:20:28.324Z,94673
2022-11-09T15:23:53.739Z,94678
2022-11-09T15:27:18.923Z,94675
2022-11-09T15:30:45.988Z,94673
2022-11-09T15:34:09.576Z,94674
2022-11-09T15:37:34.860Z,94671
2022-11-09T15:41:00.229Z,94672
2022-11-09T15:44:25.390Z,94667
2022-11-09T15:47:50.679Z,94673
2022-11-09T15:51:15.940Z,94673
2022-11-09T15:54:45.544Z,94678
2022-11-09T15:58:06.553Z,94678
2022-11-09T16:01:31.792Z,94684
2022-11-09T16:04:57.056Z,94684
2022-11-09T16:08:22.513Z,94687
2022-11-09T16:11:47.606Z,94685
2022-11-09T16:15:12.888Z,94680
2022-11-09T16:18:38.143Z,94682
2022-11-09T16:22:03.420Z,94687
2022-11-09T16:25:28.724Z,94684
2022-11-09T16:28:54.154Z,94690
2022-11-09T16:32:19.480Z,94692
2022-11-09T16:35:44.726Z,94695
2022-11-09T16:39:09.999Z,94711
2022-11-09T16:42:35.261Z,94712
2022-11-09T16:46:00.529Z,94714
2022-11-09T16:49:25.850Z,94719
2022-11-09T16:52:51.144Z,94723
2022-11-09T16:56:16.451Z,94723
2022-11-09T16:59:41.779Z,94721
2022-11-09T17:03:07.043Z,94722
2022-11-09T17:06:32.346Z,94720
2022-11-09T17:09:57.551Z,94726
2022-11-09T17:13:22.820Z,94725
2022-11-09T17:16:48.081Z,94736
2022-11-09T17:20:13.367Z,94737
2022-11-09T17:23:38.675Z,94735
2022-11-09T17:27:03.912Z,94739
2022-11-09T17:30:29.217Z,94742
2022-11-09T17:33:58.414Z,94746
2022-11-09T17:37:19.758Z,94746
2022-11-09T17:40:45.115Z,94748
2022-11-09T17:44:10.365Z,94748
2022-11-09T17:47:35.634Z,94761
2022-11-09T17:51:00.946Z,94758
2022-11-09T17:54:26.268Z,94758
2022-11-09T17:57:51.608Z,94758
2022-11-09T18:01:16.879Z,94760
2022-11-09T18:04:42.150Z,94769
2022-11-09T18:08:07.675Z,94773
2022-11-09T18:11:33.140Z,94774
2022-11-09T18:14:58.594Z,94776
2022-11-09T18:18:24.076Z,94780
2022-11-09T18:21:49.456Z,94783
2022-11-09T18:25:14.891Z,94781
2022-11-09T18:28:40.334Z,94781
2022-11-09T18:32:05.819Z,94783
2022-11-09T18:35:31.216Z,94784
2022-11-09T18:38:56.679Z,94787
2022-11-09T18:42:22.118Z,94788
2022-11-09T18:45:47.567Z,94792
2022-11-09T18:49:14.343Z,94790
2022-11-09T18:52:38.435Z,94788
2022-11-09T18:56:06.689Z,94791
2022-11-09T18:59:29.301Z,94796
2022-11-09T19:02:54.851Z,94802
2022-11-09T19:06:20.255Z,94810
2022-11-09T19:09:47.181Z,94818
2022-11-09T19:13:12.909Z,94836
2022-11-09T19:16:38.644Z,94833
2022-11-09T19:20:04.376Z,94837
2022-11-09T19:23:34.285Z,94841
2022-11-09T19:26:55.919Z,94833
2022-11-09T19:30:30.358Z,94842
2022-11-09T19:34:06.730Z,94846
2022-11-09T19:37:32.689Z,94848
2022-11-09T19:40:58.484Z,94853
2022-11-09T19:44:24.247Z,94850
2022-11-09T19:47:50.047Z,94853
2022-11-09T19:51:15.887Z,94854
2022-11-09T19:54:41.652Z,94857
2022-11-09T19:58:07.442Z,94860
2022-11-09T20:01:32.903Z,94863
2022-11-09T20:05:16.351Z,94857
2022-11-09T20:08:41.693Z,94871
2022-11-09T20:12:07.020Z,94866
2022-11-09T20:15:32.402Z,94881
2022-11-09T20:18:57.684Z,94880
2022-11-09T20:22:23.262Z,94881
2022-11-09T20:25:48.580Z,94895
2022-11-09T20:29:13.895Z,94893
2022-11-09T20:32:39.263Z,94892
2022-11-09T20:36:04.572Z,94890
2022-11-09T20:39:29.903Z,94893
2022-11-09T20:42:55.249Z,94904
2022-11-09T20:46:20.595Z,94900
2022-11-09T20:49:45.943Z,94905
2022-11-09T20:53:11.300Z,94911
2022-11-09T20:56:36.634Z,94912
2022-11-09T21:00:02.010Z,94918
2022-11-09T21:03:27.372Z,94919
2022-11-09T21:06:52.786Z,94920
2022-11-09T21:10:18.095Z,94919
2022-11-09T21:13:43.425Z,94917
2022-11-09T21:17:08.784Z,94920
2022-11-09T21:20:34.115Z,94922
2022-11-09T21:23:59.491Z,94918
2022-11-09T21:27:24.823Z,94923
2022-11-09T21:30:50.176Z,94929
2022-11-09T21:34:15.523Z,94937
2022-11-09T21:37:41.037Z,94940
2022-11-09T21:41:08.006Z,94942
2022-11-09T21:44:31.439Z,94949
2022-11-09T21:47:56.649Z,94942
2022-11-09T21:51:21.878Z,94942
2022-11-09T21:54:47.110Z,94947
2022-11-09T21:58:12.383Z,94945
2022-11-09T22:01:37.631Z,94947
2022-11-09T22:05:02.811Z,94952
2022-11-09T22:08:28.027Z,94958
2022-11-09T22:11:53.268Z,94961
2022-11-09T22:15:18.514Z,94963
2022-11-09T22:18:48.715Z,94967
2022-11-09T22:22:08.939Z,94968
2022-11-09T22:25:34.161Z,94983
2022-11-09T22:28:59.440Z,94980
2022-11-09T22:32:24.757Z,94988
2022-11-09T22:35:49.973Z,94986
2022-11-09T22:39:15.232Z,94986
2022-11-09T22:42:40.444Z,94999
2022-11-09T22:46:05.679Z,95005
2022-11-09T22:49:30.913Z,95012
2022-11-09T22:52:59.581Z,95012
2022-11-09T22:56:21.348Z,95019
2022-11-09T22:59:46.580Z,95026
2022-11-09T23:03:11.820Z,95033
2022-11-09T23:06:37.155Z,95038
2022-11-09T23:10:02.282Z,95034
2022-11-09T23:13:27.511Z,95040
2022-11-09T23:16:52.740Z,95042
2022-11-09T23:20:17.992Z,95053
2022-11-09T23:23:43.246Z,95063
2022-11-09T23:27:08.434Z,95059
2022-11-09T23:30:33.675Z,95059
2022-11-09T23:33:58.890Z,95068
2022-11-09T23:37:24.123Z,95077
2022-11-09T23:40:49.379Z,95082
2022-11-09T23:44:14.590Z,95079
2022-11-09T23:47:39.801Z,95090
2022-11-09T23:51:05.017Z,95089
2022-11-09T23:54:30.256Z,95092
2022-11-09T23:57:55.481Z,95092
